Flight Track Log - Related Links

Times and Time Zones

All times are in EDT time to prevent confusion due to time zone crossing. See the DAL1903 flight status page for this flight to view local times or setup timezone preferences in your user account.

Time Position Orientation Groundspeed Altitude Reporting Facility
EDT Latitude Longitude Course Direction KTS MPH feet Rate Location/Type
Mon 11:25:20 AM 40.7500 -73.8167 237° Southwest 191 220 1,500  Level New York TRACON
Mon 11:26:14 AM 40.8000 -73.7667 37° Northeast 235 270 3,400 2,158 Climbing New York TRACON
Mon 11:27:00 AM 40.6298 -74.2874 244° Southwest  Level FlightAware Approximate
Mon 11:27:14 AM 40.8333 -73.8333 303° West 270 311 5,600  Level New York TRACON
Mon 11:28:00 AM 40.5795 -74.4283 246° West  Level FlightAware Approximate
Mon 11:28:14 AM 40.8333 -73.9333 270° West 276 318 8,200  Level New York TRACON
Mon 11:29:00 AM 40.5333 -74.5713 270° West  Level FlightAware Approximate
Mon 11:29:08 AM 40.8167 -74.0333 258° West 280 322 10,500  Level New York TRACON
Mon 11:30:00 AM 40.4933 -74.7134 237° Southwest  Level FlightAware Approximate
Mon 11:30:14 AM 40.8000 -74.1500 259° West 312 359 12,400  Level New York TRACON
Mon 11:31:08 AM 40.7667 -74.2333 242° Southwest 310 357 14,800 1,236 Climbing New York TRACON
Mon 11:32:59 AM 40.7319 -74.4297 257° West 308 354 15,800 702 Climbing New York Center
Mon 11:33:59 AM 40.7058 -74.5350 252° West 322 371 16,800 900 Climbing New York Center
Mon 11:34:59 AM 40.6375 -74.6461 231° Southwest 343 395 17,600 1,289 Climbing New York Center
Mon 11:36:00 AM 40.5783 -74.7358 229° Southwest 366 421 19,400 1,983 Climbing New York Center
Mon 11:37:00 AM 40.5036 -74.8461 228° Southwest 375 432 21,600 1,765 Climbing New York Center
Mon 11:37:59 AM 40.4356 -74.9511 230° Southwest 375 432 22,900 712 Climbing New York Center
Mon 11:38:58 AM 40.3717 -75.0425 227° Southwest 381 438 23,000 50 Climbing New York Center
Mon 11:39:58 AM 40.3172 -75.1617 239° Southwest 381 438 23,000 843 Level New York Center
Mon 11:40:59 AM 40.2581 -75.2967 240° Southwest 386 444 24,700 1,366 Climbing New York Center
Mon 11:42:01 AM 40.2019 -75.4017 235° Southwest 391 450 25,800 1,160 Climbing New York Center
Mon 11:42:58 AM 40.1044 -75.4956 216° Southwest 391 450 27,000 1,119 Climbing New York Center
Mon 11:43:59 AM 40.0197 -75.5767 216° Southwest 411 473 28,000 1,033 Climbing New York Center
Mon 11:45:00 AM 39.9219 -75.6756 218° Southwest 411 473 29,100 1,109 Climbing New York Center
Mon 11:45:58 AM 39.8483 -75.7894 230° Southwest 416 479 30,200 966 Climbing New York Center
Mon 11:46:58 AM 39.7747 -75.9003 229° Southwest 415 478 31,000 893 Climbing New York Center
Mon 11:47:59 AM 39.7028 -76.0164 231° Southwest 415 478 32,000 1,033 Climbing New York Center
Mon 11:49:00 AM 39.6308 -76.1325 231° Southwest 415 478 33,100 702 Climbing New York Center
Mon 11:50:50 AM 39.4989 -76.3364 230° Southwest 416 479 34,000 316 Climbing Washington Center
Mon 11:51:51 AM 39.4272 -76.4433 229° Southwest 405 466 34,000  Level Washington Center
Mon 11:52:49 AM 39.3597 -76.5525 231° Southwest 399 459 34,000  Level Washington Center
Mon 11:53:50 AM 39.2900 -76.6617 230° Southwest 399 459 34,000  Level Washington Center
Mon 11:54:51 AM 39.2203 -76.7703 230° Southwest 399 459 34,000  Level Washington Center
Mon 11:55:51 AM 39.1483 -76.8789 230° Southwest 399 459 34,000  Level Washington Center
Mon 11:56:49 AM 39.0803 -76.9847 230° Southwest 399 459 34,000  Level Washington Center
Mon 11:57:50 AM 39.0022 -77.0819 224° Southwest 399 459 34,000  Level Washington Center
Mon 11:58:50 AM 38.9175 -77.1711 219° Southwest 399 459 34,000  Level Washington Center
Mon 11:59:50 AM 38.8331 -77.2625 220° Southwest 399 459 34,000  Level Washington Center
Mon 12:00:51 PM 38.7483 -77.3539 220° Southwest 399 459 34,000  Level Washington Center
Mon 12:02:00 PM 38.6656 -77.4475 221° Southwest 399 459 34,000  Level Washington Center
Mon 12:03:01 PM 38.5617 -77.5592 220° Southwest 404 465 34,000  Level Washington Center
Mon 12:04:01 PM 38.4894 -77.6422 222° Southwest 404 465 34,000  Level Washington Center
Mon 12:05:02 PM 38.4064 -77.7325 220° Southwest 404 465 34,000  Level Washington Center
Mon 12:06:03 PM 38.3214 -77.8228 220° Southwest 398 458 34,000  Level Washington Center
Mon 12:07:01 PM 38.2383 -77.9153 221° Southwest 398 458 34,000  Level Washington Center
Mon 12:08:01 PM 38.1553 -78.0053 220° Southwest 398 458 34,000  Level Washington Center
Mon 12:09:03 PM 38.0700 -78.0947 220° Southwest 398 458 34,000  Level Washington Center
Mon 12:10:03 PM 37.9803 -78.1919 221° Southwest 388 447 34,000  Level Washington Center
Mon 12:11:02 PM 37.8889 -78.2731 215° Southwest 393 452 34,000  Level Washington Center
Mon 12:12:03 PM 37.7972 -78.3617 217° Southwest 403 464 34,000  Level Washington Center
Mon 12:13:03 PM 37.7075 -78.4450 216° Southwest 403 464 34,000  Level Washington Center
Mon 12:14:01 PM 37.6267 -78.5208 217° Southwest 408 470 34,000  Level Washington Center
Mon 12:15:02 PM 37.5367 -78.6064 217° Southwest 408 470 34,000  Level Washington Center
Mon 12:16:02 PM 37.4450 -78.6917 216° Southwest 408 470 34,000  Level Washington Center
Mon 12:17:03 PM 37.3508 -78.7767 216° Southwest 414 476 34,000  Level Washington Center
Mon 12:18:01 PM 37.2522 -78.8742 218° Southwest 419 482 34,000  Level Washington Center
Mon 12:19:02 PM 37.1603 -78.9589 216° Southwest 419 482 34,000  Level Washington Center
Mon 12:20:03 PM 37.0658 -79.0486 217° Southwest 419 482 34,000  Level Washington Center
Mon 12:21:01 PM 36.9717 -79.1353 216° Southwest 419 482 34,000  Level Washington Center
Mon 12:22:01 PM 36.8792 -79.2219 217° Southwest 425 489 34,000  Level Washington Center
Mon 12:23:02 PM 36.7933 -79.3008 216° Southwest 430 495 34,000  Level Washington Center
Mon 12:24:03 PM 36.6989 -79.3869 216° Southwest 430 495 34,000  Level Washington Center
Mon 12:26:33 PM 36.4539 -79.6069 216° Southwest 434 499 34,000  Level Atlanta Center
Mon 12:27:33 PM 36.3567 -79.6897 214° Southwest 434 499 34,000  Level Atlanta Center
Mon 12:28:33 PM 36.2617 -79.7772 217° Southwest 434 499 34,000  Level Atlanta Center
Mon 12:29:33 PM 36.1525 -79.8756 216° Southwest 434 499 34,000  Level Atlanta Center
Mon 12:30:33 PM 36.0572 -79.9600 216° Southwest 434 499 34,000  Level Atlanta Center
Mon 12:31:33 PM 35.9467 -80.0219 204° Southwest 434 499 34,000  Level Atlanta Center
Mon 12:32:33 PM 35.8358 -80.0814 204° Southwest 434 499 34,000  Level Atlanta Center
Mon 12:33:33 PM 35.7331 -80.1272 200° South 439 505 34,000  Level Atlanta Center
Mon 12:34:33 PM 35.6078 -80.1919 203° Southwest 439 505 34,000  Level Atlanta Center
Mon 12:35:33 PM 35.4950 -80.2483 202° Southwest 444 511 34,000  Level Atlanta Center
Mon 12:36:33 PM 35.3819 -80.3044 202° Southwest 449 517 34,000  Level Atlanta Center
Mon 12:37:33 PM 35.2772 -80.3600 203° Southwest 449 517 34,000  Level Atlanta Center
Mon 12:38:33 PM 35.1642 -80.4158 202° Southwest 449 517 34,000  Level Atlanta Center
Mon 12:40:05 PM 34.9778 -80.5061 202° Southwest 456 525 34,000  Level Jacksonville Center
Mon 12:41:05 PM 34.8786 -80.5569 203° Southwest 446 513 34,000  Level Jacksonville Center
Mon 12:42:05 PM 34.7692 -80.6181 205° Southwest 441 507 34,000  Level Jacksonville Center
Mon 12:43:05 PM 34.6575 -80.6714 201° Southwest 434 499 34,000  Level Jacksonville Center
Mon 12:44:05 PM 34.5356 -80.7325 202° Southwest 451 519 34,000  Level Jacksonville Center
Mon 12:45:05 PM 34.4197 -80.7883 202° Southwest 456 525 34,000  Level Jacksonville Center
Mon 12:46:05 PM 34.2936 -80.8492 202° Southwest 450 518 34,000  Level Jacksonville Center
Mon 12:47:05 PM 34.1919 -80.8967 201° Southwest 444 511 34,000  Level Jacksonville Center
Mon 12:48:05 PM 34.0739 -80.9497 200° South 451 519 34,000  Level Jacksonville Center
Mon 12:49:05 PM 33.9578 -81.0047 201° Southwest 451 519 34,000  Level Jacksonville Center
Mon 12:50:05 PM 33.8397 -81.0522 198° South 451 519 34,000  Level Jacksonville Center
Mon 12:51:05 PM 33.7153 -81.1022 198° South 451 519 34,000  Level Jacksonville Center
Mon 12:52:05 PM 33.5925 -81.1397 194° South 457 526 34,000  Level Jacksonville Center
Mon 12:53:05 PM 33.4678 -81.1769 194° South 457 526 34,000  Level Jacksonville Center
Mon 12:54:05 PM 33.3453 -81.2167 195° South 457 526 34,000  Level Jacksonville Center
Mon 12:55:05 PM 33.2164 -81.2539 194° South 462 532 34,000  Level Jacksonville Center
Mon 12:56:05 PM 33.0958 -81.2908 194° South 462 532 34,000  Level Jacksonville Center
Mon 12:57:05 PM 32.9711 -81.3278 194° South 462 532 34,000  Level Jacksonville Center
Mon 12:58:05 PM 32.8503 -81.3644 194° South 457 526 34,000  Level Jacksonville Center
Mon 12:59:05 PM 32.7256 -81.4011 194° South 457 526 34,000  Level Jacksonville Center
Mon 01:00:05 PM 32.5944 -81.4428 195° South 442 509 34,000  Level Jacksonville Center
Mon 01:01:05 PM 32.4739 -81.4792 194° South 447 514 34,000  Level Jacksonville Center
Mon 01:02:05 PM 32.3636 -81.5128 194° South 453 521 34,000  Level Jacksonville Center
Mon 01:03:05 PM 32.2264 -81.5542 194° South 453 521 34,000  Level Jacksonville Center
Mon 01:04:05 PM 32.1158 -81.5853 193° South 456 525 34,000  Level Jacksonville Center
Mon 01:05:05 PM 31.9828 -81.6239 194° South 450 518 34,000  Level Jacksonville Center
Mon 01:06:05 PM 31.8600 -81.6597 194° South 455 524 34,000  Level Jacksonville Center
Mon 01:07:05 PM 31.7494 -81.6931 194° South 460 529 34,000  Level Jacksonville Center
Mon 01:08:05 PM 31.6142 -81.7314 194° South 452 520 34,000  Level Jacksonville Center
Mon 01:09:05 PM 31.5017 -81.7619 193° South 452 520 34,000  Level Jacksonville Center
Mon 01:10:05 PM 31.3683 -81.8025 195° South 452 520 34,000  Level Jacksonville Center
Mon 01:11:05 PM 31.2561 -81.8353 194° South 452 520 34,000  Level Jacksonville Center
Mon 01:12:05 PM 31.1331 -81.8683 193° South 452 520 34,000  Level Jacksonville Center
Mon 01:13:05 PM 31.0103 -81.9061 195° South 452 520 34,000  Level Jacksonville Center
Mon 01:14:05 PM 30.8872 -81.9411 194° South 452 520 34,000  Level Jacksonville Center
Mon 01:15:05 PM 30.7644 -81.9764 194° South 452 520 34,000  Level Jacksonville Center
Mon 01:16:05 PM 30.6289 -82.0139 193° South 452 520 34,000  Level Jacksonville Center
Mon 01:17:05 PM 30.5081 -82.0414 191° South 452 520 34,000  Level Jacksonville Center
Mon 01:18:05 PM 30.3872 -82.0764 194° South 452 520 34,000  Level Jacksonville Center
Mon 01:19:05 PM 30.2600 -82.1133 194° South 452 520 34,000 -350 Level Jacksonville Center
Mon 01:20:05 PM 30.1392 -82.1456 193° South 452 520 33,300 -1,450 Descending Jacksonville Center
Mon 01:21:05 PM 30.0161 -82.1800 194° South 452 520 31,100 -2,050 Descending Jacksonville Center
Mon 01:22:05 PM 29.8911 -82.2194 195° South 452 520 29,200 -1,750 Descending Jacksonville Center
Mon 01:23:05 PM 29.7658 -82.2514 192° South 452 520 27,600 -1,250 Descending Jacksonville Center
Mon 01:24:05 PM 29.6408 -82.2642 185° South 452 520 26,700 -850 Descending Jacksonville Center
Mon 01:25:05 PM 29.5175 -82.2458 173° South 447 514 25,900 -1,050 Descending Jacksonville Center
Mon 01:26:05 PM 29.3942 -82.2228 171° South 447 514 24,600 -1,350 Descending Jacksonville Center
Mon 01:27:05 PM 29.2750 -82.2022 171° South 447 514 23,200 -1,750 Descending Jacksonville Center
Mon 01:28:05 PM 29.1581 -82.1886 174° South 436 502 21,100 -2,200 Descending Jacksonville Center
Mon 01:29:05 PM 29.0494 -82.1706 172° South 423 487 18,800 -2,050 Descending Jacksonville Center
Mon 01:30:05 PM 28.9617 -82.1592 174° South 405 466 17,000 -2,100 Descending Jacksonville Center
Mon 01:31:05 PM 28.8447 -82.1411 172° South 399 459 14,600 -1,682 Descending Jacksonville Center
Mon 01:32:42 PM 28.6667 -82.1167 173° South 363 418 12,600 -994 Descending Tampa TRACON
Mon 01:33:42 PM 28.5833 -82.1000 170° South 355 409 12,000 -300 Descending Tampa TRACON
Mon 01:34:42 PM 28.4833 -82.0833 172° South 358 412 12,000 -200 Level Tampa TRACON
Mon 01:35:42 PM 28.3833 -82.0833 180° South 358 412 11,600 -500 Descending Tampa TRACON
Mon 01:36:42 PM 28.2833 -82.0500 164° South 353 406 11,000 -632 Descending Tampa TRACON
Mon 01:37:36 PM 28.2000 -82.0333 170° South 352 405 10,400 -526 Descending Tampa TRACON
Mon 01:38:36 PM 28.1167 -82.0833 208° Southwest 335 386 10,000 -238 Descending Tampa TRACON
Mon 01:39:42 PM 28.0167 -82.1167 196° South 302 348 9,900 -714 Descending Tampa TRACON
Mon 01:40:42 PM 27.9333 -82.1500 199° South 278 320 8,500 -1,461 Descending Tampa TRACON
Mon 01:41:37 PM 27.8833 -82.1833 211° Southwest 271 312 7,100 -1,250 Descending Tampa TRACON
Mon 01:42:42 PM 27.8000 -82.2333 208° Southwest 269 310 6,000 -528 Descending Tampa TRACON
Mon 01:43:42 PM 27.7333 -82.2667 204° Southwest 271 312 6,000  Level Tampa TRACON
Mon 01:44:43 PM 27.6667 -82.3000 204° Southwest 269 310 6,000 -446 Level Tampa TRACON
Mon 01:45:43 PM 27.6000 -82.3333 204° Southwest 269 310 5,100 -1,190 Descending Tampa TRACON
Mon 01:46:49 PM 27.5333 -82.3667 204° Southwest 265 305 3,500 -1,429 Descending Tampa TRACON
Mon 01:47:49 PM 27.4667 -82.4167 214° Southwest 254 292 2,100 -756 Descending Tampa TRACON
Mon 01:48:48 PM 27.4167 -82.4500 211° Southwest 188 216 2,000 -200 Descending Tampa TRACON
Mon 01:49:49 PM 27.3667 -82.4667 196° South 177 204 1,700 -545 Descending Tampa TRACON
Mon 01:50:49 PM 27.3667 -82.5167 270° West 148 170 900 -800 Descending Tampa TRACON
Mon 01:52:00 PM 27.3833 -82.5500 299° West  Level FlightAware Approximate
Mon 01:59:00 PM 27.3954 -82.5544 299° West  Level Estimated
Mon 02:00:00 PM 27.3954 -82.5544 299° West  Level Estimated

Login

Don't have an account? Register now (free) for customized features, flight alerts, and more!